Eaton, New York
Current Conditions -  °F | °C
As of 4:53 AM on Thursday 23 Oct 2014 (Local Time) from KRME Reporting Station
Clear Clear  
Wind Chill: 45°   Ceiling: Unl
Heat Index: 45°   Visibility: 10mi
Dew Point: 38°   Wind: 3mph
Humidity: 76%   Direction: 280°W
Pressure: 29.98"   Gusts: NA
Location:  42.85°N, 75.61°W
Report Text: KRME 230853Z AUTO 28003KT 10SM CLR 07/03 A2998 RMK AO2 SLP152 T00720033 55010
Loading
Personal Weather Stations






























Interactive Weather Map New forecast layout! Learn more

10-Day Weather Forecast

Advertisements
Track Severe Weather on mobile